Tropical Cyclones
[Index]
Main Index Home Page Stock Weather Photos Extreme Storms Discussion Storm News and Storm Chasing Reports Tropical Cyclones / Hurricanes / Typhoons Weather Data and Links Wild Fires / Bushfires Weather Observation Techniques Weather Picture Catalogue Tornado Pictures and Reports Stock Video Footage and DVDs for sale
Season 2008-2009 Tropical Cyclone ILSA Track Map
Season 2008-2009 Summaries: [BoM-AU] [JTWC-AU] [JTWC-SIO] [JTWC-SPAC] [JTWC-SH]
<<- Previous TC | JTWC 2008-2009 Season | Next TC ->>

click for intensity scale information  Lat/long Grid: Show Hide

 Date Labels: Show Hide

Joint Typhoon Warning Centre Cyclone Data

Name: ILSA

16 Mar 2009 18:00 UTC to 26 Mar 2009 12:00 UTC

    date/time    lat    long     hPa   cat  kts
2009-03-16 18   12.6   121.5    1007         20          
2009-03-17 00   12.9   119.9    1004         25          
2009-03-17 06   13.0   118.3    1004         25          
2009-03-17 12   13.5   116.6    1000         30          
2009-03-17 18   13.3   114.8     996         35          
2009-03-18 00   13.5   113.2     993    1    40          
2009-03-18 06   13.6   111.9     985    1    50          
2009-03-18 12   13.7   110.7     982    2    55          
2009-03-18 18   14.6   109.7     974    2    65          
2009-03-18 18   14.6   109.7     974    2    65          
2009-03-19 00   15.4   108.7     970    2    70          
2009-03-19 00   15.4   108.7     970    2    70          
2009-03-19 06   15.9   107.6     959    3    85          
2009-03-19 06   15.9   107.6     959    3    85          
2009-03-19 06   15.9   107.6     959    3    85          
2009-03-19 12   16.3   106.8     948    4   100          
2009-03-19 12   16.3   106.8     948    4   100          
2009-03-19 12   16.3   106.8     948    4   100          
2009-03-19 18   16.3   105.9     948    4   100          
2009-03-19 18   16.3   105.9     948    4   100          
2009-03-19 18   16.3   105.9     948    4   100          
2009-03-20 00   16.2   105.1     952    3    95          
2009-03-20 00   16.2   105.1     952    3    95          
2009-03-20 00   16.2   105.1     952    3    95          
2009-03-20 06   16.1   104.4     952    3    95          
2009-03-20 06   16.1   104.4     952    3    95          
2009-03-20 06   16.1   104.4     952    3    95          
2009-03-20 12   16.0   103.8     956    3    90          
2009-03-20 12   16.0   103.8     956    3    90          
2009-03-20 12   16.0   103.8     956    3    90          
2009-03-20 18   15.9   103.2     956    3    90          
2009-03-20 18   15.9   103.2     956    3    90          
2009-03-20 18   15.9   103.2     956    3    90          
2009-03-21 00   16.0   102.4     956    3    90          
2009-03-21 00   16.0   102.4     956    3    90          
2009-03-21 00   16.0   102.4     956    3    90          
2009-03-21 06   16.1   101.6     959    3    85          
2009-03-21 06   16.1   101.6     959    3    85          
2009-03-21 06   16.1   101.6     959    3    85          
2009-03-21 12   16.1   100.9     963    3    80          
2009-03-21 12   16.1   100.9     963    3    80          
2009-03-21 12   16.1   100.9     963    3    80          
2009-03-21 18   16.1   100.2     967    3    75          
2009-03-21 18   16.1   100.2     967    3    75          
2009-03-21 18   16.1   100.2     967    3    75          
2009-03-22 00   16.2    99.5     970    2    70          
2009-03-22 00   16.2    99.5     970    2    70          
2009-03-22 00   16.2    99.5     970    2    70          
2009-03-22 06   16.4    98.8     970    2    70          
2009-03-22 06   16.4    98.8     970    2    70          
2009-03-22 12   16.8    97.9     974    2    65          
2009-03-22 12   16.8    97.9     974    2    65          
2009-03-22 18   17.1    96.8     982    2    55          
2009-03-23 00   17.3    95.5     989    1    45          
2009-03-23 06   17.6    94.2     993    1    40          
2009-03-23 12   18.2    92.9     996         35          
2009-03-23 18   18.6    91.5     996         35          
2009-03-24 00   19.2    90.1    1000         30          
2009-03-24 06   19.6    88.9    1000         30          
2009-03-24 12   20.0    87.7    1000         30          
2009-03-24 18   20.3    86.1    1004         25          
2009-03-25 00   21.0    84.6    1004         25          
2009-03-25 06   21.5    83.3    1004         25          
2009-03-25 12   22.2    82.1    1007         20          
2009-03-25 18   23.1    80.8    1007         20          
2009-03-26 00   23.7    79.8    1007         20          
2009-03-26 06   24.2    78.9    1007         20          
2009-03-26 12   24.7    77.8    1010         15          
Winds are 1-min average.

Tropical cyclone tracks developed by Michael Bath using data from the Joint Typhoon Warning Centre Best Tracks and Google Maps.


[Australian Severe Weather index] [Copyright Notice] [Email Contacts] [Search This Site] [Privacy Policy]
Document: tropical_cyclone_ilsa.htm Updated: 28 June 2017